Time;durP1;ratioP1;P1;durP2;ratioP2;P2;SDS_P1;SDS_P2;PMS_P1;PMS_P2;Temp;Humidity;BMP_temperature;BMP_pressure;BME280_temperature;BME280_humidity;BME280_pressure;Samples;Min_cycle;Max_cycle;Signal;HPM_P1;HPM_P2
2021/08/01 00:01:23;;;;;;;30.40;17.98;;;14.80;99.90;;;;;;6272681;22;20061;-84
2021/08/01 00:03:50;;;;;;;29.10;18.52;;;14.80;99.90;;;;;;6244615;22;20011;-84
2021/08/01 00:06:17;;;;;;;31.70;19.20;;;14.80;99.90;;;;;;6272280;22;20321;-85
2021/08/01 00:08:43;;;;;;;34.63;20.00;;;14.80;99.90;;;;;;6246280;22;20066;-84
2021/08/01 00:11:09;;;;;;;33.90;18.85;;;14.70;99.90;;;;;;6220499;22;20350;-83
2021/08/01 00:13:35;;;;;;;31.40;18.98;;;14.80;99.90;;;;;;6245456;22;20015;-84
2021/08/01 00:16:01;;;;;;;30.38;19.90;;;14.80;99.90;;;;;;6220023;22;20251;-85
2021/08/01 00:18:27;;;;;;;37.40;19.75;;;14.70;99.90;;;;;;6246183;22;20094;-84
2021/08/01 00:20:53;;;;;;;29.60;19.17;;;14.80;99.90;;;;;;6220776;22;20012;-83
2021/08/01 00:23:19;;;;;;;30.63;19.48;;;14.70;99.90;;;;;;6272841;22;20007;-84
2021/08/01 00:25:45;;;;;;;30.00;20.27;;;14.80;99.90;;;;;;6219130;22;20022;-84
2021/08/01 00:28:10;;;;;;;38.13;20.20;;;14.70;99.90;;;;;;6219829;22;20445;-85
2021/08/01 00:30:37;;;;;;;33.20;18.95;;;14.70;99.90;;;;;;6220873;22;20330;-85
2021/08/01 00:33:03;;;;;;;35.72;20.42;;;14.70;99.90;;;;;;6221253;22;20026;-84
2021/08/01 00:35:29;;;;;;;39.22;19.98;;;14.70;99.90;;;;;;6195461;22;20091;-83
2021/08/01 00:37:55;;;;;;;30.70;19.50;;;14.70;99.90;;;;;;6220755;22;20356;-84
2021/08/01 00:40:22;;;;;;;31.88;20.20;;;14.70;99.90;;;;;;6273985;22;20026;-84
2021/08/01 00:42:49;;;;;;;39.80;20.48;;;14.60;99.90;;;;;;6247535;22;20011;-84
2021/08/01 00:45:16;;;;;;;37.58;20.40;;;14.60;99.90;;;;;;6223263;22;20011;-84
2021/08/01 00:47:43;;;;;;;42.30;20.02;;;14.60;99.90;;;;;;6247095;22;20012;-84
2021/08/01 00:50:09;;;;;;;36.33;18.83;;;14.60;99.90;;;;;;6247931;22;20019;-84
2021/08/01 00:52:36;;;;;;;34.92;20.52;;;14.60;99.90;;;;;;6221533;22;20008;-84
2021/08/01 00:55:06;;;;;;;33.13;19.45;;;14.60;99.90;;;;;;6221985;22;20453;-84
2021/08/01 00:57:32;;;;;;;30.58;19.38;;;14.60;99.90;;;;;;6222004;22;20016;-83
2021/08/01 00:59:58;;;;;;;36.33;19.95;;;14.50;99.90;;;;;;6197170;22;20514;-83
2021/08/01 01:02:37;;;;;;;39.65;21.05;;;14.50;99.90;;;;;;6247995;22;20016;-83
2021/08/01 01:05:08;;;;;;;40.72;20.88;;;14.50;99.90;;;;;;6246989;22;20107;-85
2021/08/01 01:07:37;;;;;;;37.77;21.60;;;14.40;99.90;;;;;;6246714;22;20011;-84
2021/08/01 01:10:08;;;;;;;47.33;23.05;;;14.40;99.90;;;;;;6247330;22;20266;-84
2021/08/01 01:12:40;;;;;;;40.83;21.97;;;14.40;99.90;;;;;;6273813;22;20079;-84
2021/08/01 01:15:11;;;;;;;43.35;23.02;;;14.40;99.90;;;;;;6246854;22;20516;-84
2021/08/01 01:17:38;;;;;;;45.03;24.35;;;14.40;99.90;;;;;;6221511;22;20209;-84
2021/08/01 01:20:42;;;;;;;46.20;23.05;;;14.40;99.90;;;;;;6221944;22;20391;-83
2021/08/01 01:23:39;;;;;;;49.45;24.73;;;14.40;99.90;;;;;;6246697;22;20007;-84
2021/08/01 01:26:24;;;;;;;44.03;23.17;;;14.40;99.90;;;;;;6246487;22;20023;-86
2021/08/01 01:29:08;;;;;;;46.90;23.48;;;14.40;99.90;;;;;;6256844;22;20012;-84
2021/08/01 01:31:43;;;;;;;49.47;25.05;;;14.40;99.90;;;;;;6256606;22;20189;-83
2021/08/01 01:34:23;;;;;;;50.42;25.00;;;14.40;99.90;;;;;;6244729;22;20007;-84
2021/08/01 01:36:51;;;;;;;56.53;25.25;;;14.40;99.90;;;;;;6246521;22;20498;-84
2021/08/01 01:39:20;;;;;;;42.90;22.88;;;14.40;99.90;;;;;;6246178;22;20011;-85
2021/08/01 01:41:47;;;;;;;44.60;22.77;;;14.40;99.90;;;;;;6272980;22;20389;-85
2021/08/01 01:44:13;;;;;;;47.40;23.13;;;14.40;99.90;;;;;;6246032;22;20037;-85
2021/08/01 01:46:41;;;;;;;41.00;22.52;;;14.40;99.90;;;;;;6273504;22;20011;-84
2021/08/01 01:49:10;;;;;;;48.42;23.15;;;14.40;99.90;;;;;;6220625;22;20008;-84
2021/08/01 01:51:36;;;;;;;43.30;22.83;;;14.30;99.90;;;;;;6245483;22;20043;-84
2021/08/01 01:54:04;;;;;;;44.05;23.80;;;14.30;99.90;;;;;;6220974;22;20544;-83
2021/08/01 01:56:33;;;;;;;46.85;23.15;;;14.30;99.90;;;;;;6221043;22;20087;-84
2021/08/01 01:59:01;;;;;;;49.97;24.00;;;14.20;99.90;;;;;;6246151;22;20094;-86
2021/08/01 02:01:27;;;;;;;51.67;24.40;;;14.20;99.90;;;;;;6221712;22;20012;-84
2021/08/01 02:03:53;;;;;;;53.20;26.77;;;14.20;99.90;;;;;;6220786;22;20448;-86
2021/08/01 02:06:19;;;;;;;54.25;25.27;;;14.20;99.90;;;;;;6246013;22;20078;-84
2021/08/01 02:08:57;;;;;;;50.60;24.80;;;14.20;99.90;;;;;;6245608;22;20437;-84
2021/08/01 02:11:33;;;;;;;53.38;26.30;;;14.20;99.90;;;;;;6245640;22;20015;-84
2021/08/01 02:14:11;;;;;;;57.20;27.08;;;14.20;99.90;;;;;;6248091;22;20007;-85
2021/08/01 02:16:40;;;;;;;52.97;26.58;;;14.20;99.90;;;;;;6246554;22;20016;-84
2021/08/01 02:19:09;;;;;;;53.28;26.70;;;14.30;99.90;;;;;;6245945;22;20012;-84
2021/08/01 02:21:39;;;;;;;62.80;27.98;;;14.30;99.90;;;;;;6246016;22;20470;-85
2021/08/01 02:24:06;;;;;;;66.85;29.30;;;14.30;99.90;;;;;;6245948;22;20007;-83
2021/08/01 02:26:36;;;;;;;57.03;29.15;;;14.30;99.90;;;;;;6221146;22;20024;-83
2021/08/01 02:29:04;;;;;;;59.30;29.73;;;14.20;99.90;;;;;;6245533;22;20007;-83
2021/08/01 02:31:31;;;;;;;65.38;30.73;;;14.20;99.90;;;;;;6245422;22;20057;-85
2021/08/01 02:33:57;;;;;;;62.95;30.27;;;14.20;99.90;;;;;;6244889;22;20484;-85
2021/08/01 02:36:25;;;;;;;59.75;29.58;;;14.20;99.90;;;;;;6245759;22;20049;-85
2021/08/01 02:38:55;;;;;;;65.65;32.28;;;14.30;99.90;;;;;;6219491;22;20007;-85
2021/08/01 02:41:36;;;;;;;63.85;31.20;;;14.30;99.90;;;;;;6244877;22;20034;-85
2021/08/01 02:44:42;;;;;;;60.78;30.40;;;14.30;99.90;;;;;;6222712;22;20061;-85
2021/08/01 02:47:10;;;;;;;59.70;31.67;;;14.30;99.90;;;;;;6203583;22;20026;-86
2021/08/01 02:49:43;;;;;;;69.82;32.60;;;14.30;99.90;;;;;;6245286;22;20043;-85
2021/08/01 02:52:18;;;;;;;61.40;32.42;;;14.30;99.90;;;;;;6272621;22;20383;-86
2021/08/01 02:54:49;;;;;;;67.03;32.97;;;14.30;99.90;;;;;;6232106;22;20023;-85
2021/08/01 02:57:17;;;;;;;78.78;35.10;;;14.30;99.90;;;;;;6221266;22;20016;-85
2021/08/01 02:59:45;;;;;;;75.60;35.58;;;14.30;99.90;;;;;;6221622;22;20015;-86
2021/08/01 03:02:11;;;;;;;82.40;36.97;;;14.30;99.90;;;;;;6220170;22;20110;-85
2021/08/01 03:04:42;;;;;;;76.55;35.13;;;14.30;99.90;;;;;;6219805;22;20503;-84
2021/08/01 03:07:11;;;;;;;70.35;34.40;;;14.30;99.90;;;;;;6245277;22;20106;-85
2021/08/01 03:09:38;;;;;;;74.47;33.50;;;14.30;99.90;;;;;;6248542;22;20026;-86
2021/08/01 03:12:14;;;;;;;81.55;37.03;;;14.30;99.90;;;;;;6222236;22;20053;-85
2021/08/01 03:14:41;;;;;;;78.35;35.70;;;14.30;99.90;;;;;;6219156;22;20012;-86
2021/08/01 03:17:07;;;;;;;75.60;36.53;;;14.30;99.90;;;;;;6232148;22;20015;-85
2021/08/01 03:19:35;;;;;;;83.07;37.78;;;14.40;99.90;;;;;;6245933;22;20192;-84
2021/08/01 03:22:01;;;;;;;81.60;37.58;;;14.40;99.90;;;;;;6251569;22;20087;-86
2021/08/01 03:24:27;;;;;;;81.97;37.92;;;14.30;99.90;;;;;;6220267;22;20448;-85
2021/08/01 03:26:53;;;;;;;83.88;38.65;;;14.30;99.90;;;;;;6220164;22;20456;-86
2021/08/01 03:29:19;;;;;;;78.50;37.45;;;14.40;99.90;;;;;;6219562;22;20118;-86
2021/08/01 03:31:45;;;;;;;76.32;35.75;;;14.30;99.90;;;;;;6195097;22;20012;-86
2021/08/01 03:34:11;;;;;;;80.20;37.20;;;14.40;99.90;;;;;;6220581;22;20019;-86
2021/08/01 03:36:37;;;;;;;85.07;38.78;;;14.40;99.90;;;;;;6198430;22;20026;-86
2021/08/01 03:39:06;;;;;;;76.18;37.00;;;14.40;99.90;;;;;;6221111;22;20012;-87
2021/08/01 03:41:32;;;;;;;86.13;37.90;;;14.40;99.90;;;;;;6247915;22;20011;-86
2021/08/01 03:43:58;;;;;;;78.03;36.78;;;14.40;99.90;;;;;;6221017;22;20031;-86
2021/08/01 03:46:24;;;;;;;77.55;36.72;;;14.40;99.90;;;;;;6220150;22;20050;-85
2021/08/01 03:48:50;;;;;;;77.13;36.92;;;14.40;99.90;;;;;;6219861;22;20008;-86
2021/08/01 03:51:16;;;;;;;84.03;37.65;;;14.40;99.90;;;;;;6220415;22;20007;-85
2021/08/01 03:53:42;;;;;;;88.40;39.00;;;14.40;99.90;;;;;;6219718;22;20012;-85
2021/08/01 03:56:07;;;;;;;90.53;39.03;;;14.40;99.90;;;;;;6219423;22;20018;-86
2021/08/01 03:58:33;;;;;;;83.30;39.95;;;14.40;99.90;;;;;;6219837;22;20016;-86
2021/08/01 04:00:59;;;;;;;92.25;40.92;;;14.40;99.90;;;;;;6219468;22;20235;-86
2021/08/01 04:03:25;;;;;;;88.70;40.78;;;14.40;99.90;;;;;;6220917;22;20015;-86
2021/08/01 04:05:51;;;;;;;97.97;41.67;;;14.40;99.90;;;;;;6219270;22;20514;-87
2021/08/01 04:08:17;;;;;;;91.25;42.92;;;14.40;99.90;;;;;;6244237;22;20068;-85
2021/08/01 04:10:43;;;;;;;89.68;42.00;;;14.40;99.90;;;;;;6218812;22;20046;-85
2021/08/01 04:13:08;;;;;;;88.00;40.55;;;14.40;99.90;;;;;;6244503;22;20042;-85
2021/08/01 04:15:34;;;;;;;92.93;42.15;;;14.40;99.90;;;;;;6221687;22;20415;-86
2021/08/01 04:18:02;;;;;;;86.20;39.80;;;14.40;99.90;;;;;;6221440;22;20015;-86
2021/08/01 04:20:29;;;;;;;79.78;39.60;;;14.40;99.90;;;;;;6221538;22;20459;-87
2021/08/01 04:22:55;;;;;;;86.05;39.40;;;14.50;99.90;;;;;;6221111;22;20057;-85
2021/08/01 04:25:21;;;;;;;84.90;40.20;;;14.40;99.90;;;;;;6246052;22;20091;-86
2021/08/01 04:27:48;;;;;;;83.43;40.60;;;14.50;99.90;;;;;;6246834;22;20016;-86
2021/08/01 04:30:15;;;;;;;98.00;41.55;;;14.40;99.90;;;;;;6246196;22;20434;-85
2021/08/01 04:32:41;;;;;;;91.18;40.88;;;14.50;99.90;;;;;;6222170;22;20015;-86
2021/08/01 04:35:07;;;;;;;93.03;41.63;;;14.40;99.90;;;;;;6221943;22;20019;-87
2021/08/01 04:37:36;;;;;;;92.35;42.40;;;14.50;99.90;;;;;;6223185;22;20452;-86
2021/08/01 04:40:04;;;;;;;94.53;41.53;;;14.50;99.90;;;;;;6248145;22;20012;-85
2021/08/01 04:42:31;;;;;;;96.18;43.28;;;14.50;99.90;;;;;;6222441;22;20022;-85
2021/08/01 04:44:57;;;;;;;94.30;44.15;;;14.60;99.90;;;;;;6221648;22;20095;-86
2021/08/01 04:47:23;;;;;;;89.97;43.88;;;14.50;99.90;;;;;;6222026;22;20012;-86
2021/08/01 04:49:49;;;;;;;90.82;42.75;;;14.60;99.90;;;;;;6221100;22;20325;-86
2021/08/01 04:52:19;;;;;;;90.50;42.35;;;14.60;99.90;;;;;;6221790;22;20444;-87
2021/08/01 04:54:46;;;;;;;89.47;42.38;;;14.60;99.90;;;;;;6221775;22;20012;-87
2021/08/01 04:57:12;;;;;;;93.35;42.55;;;14.70;99.90;;;;;;6247198;22;20016;-87
2021/08/01 04:59:38;;;;;;;89.80;42.33;;;14.70;99.90;;;;;;6247877;22;20012;-86
2021/08/01 05:02:04;;;;;;;89.35;41.80;;;14.70;99.90;;;;;;6248662;22;20035;-86
2021/08/01 05:04:30;;;;;;;95.00;44.67;;;14.70;99.90;;;;;;6246739;22;20012;-86
2021/08/01 05:06:56;;;;;;;86.07;41.58;;;14.80;99.90;;;;;;6246989;22;20042;-86
2021/08/01 05:09:22;;;;;;;81.50;39.13;;;14.80;99.90;;;;;;6196203;22;20053;-86
2021/08/01 05:11:48;;;;;;;89.78;41.05;;;14.80;99.90;;;;;;6246350;22;20585;-85
2021/08/01 05:14:14;;;;;;;82.00;40.03;;;14.90;99.90;;;;;;6220569;22;20011;-86
2021/08/01 05:16:41;;;;;;;93.78;40.53;;;14.90;99.90;;;;;;6220638;22;20022;-85
2021/08/01 05:19:07;;;;;;;87.35;40.53;;;14.90;99.90;;;;;;6220254;22;20317;-85
2021/08/01 05:21:33;;;;;;;95.18;42.65;;;14.90;99.90;;;;;;6245577;22;20046;-85
2021/08/01 05:23:59;;;;;;;90.43;40.85;;;15.00;99.90;;;;;;6245908;22;20122;-85
2021/08/01 05:26:24;;;;;;;90.85;40.88;;;15.00;99.90;;;;;;6244746;22;20034;-86
2021/08/01 05:28:50;;;;;;;90.47;40.83;;;15.00;99.90;;;;;;6246088;22;20050;-86
2021/08/01 05:31:16;;;;;;;89.47;41.05;;;15.00;99.90;;;;;;6194877;22;20098;-86
2021/08/01 05:33:42;;;;;;;85.05;40.88;;;15.10;99.90;;;;;;6221125;22;20064;-87
2021/08/01 05:36:09;;;;;;;95.35;42.83;;;15.10;99.90;;;;;;6220621;22;20015;-86
2021/08/01 05:38:36;;;;;;;87.63;40.22;;;15.10;99.90;;;;;;6194915;22;20104;-85
2021/08/01 05:41:02;;;;;;;88.30;39.35;;;15.10;99.90;;;;;;6219982;22;20016;-85
2021/08/01 05:43:28;;;;;;;88.00;42.00;;;15.20;99.90;;;;;;6220062;22;20034;-84
2021/08/01 05:45:55;;;;;;;90.47;41.42;;;15.20;99.90;;;;;;6220219;22;20012;-85
2021/08/01 05:48:20;;;;;;;93.18;41.67;;;15.20;99.90;;;;;;6245705;22;20091;-83
2021/08/01 05:50:46;;;;;;;95.53;43.30;;;15.20;99.90;;;;;;6219989;22;20035;-84
2021/08/01 05:53:13;;;;;;;96.22;42.33;;;15.30;99.90;;;;;;6245504;22;20019;-83
2021/08/01 05:55:38;;;;;;;99.60;43.70;;;15.30;99.90;;;;;;6245499;22;20008;-83
2021/08/01 05:58:04;;;;;;;101.85;44.05;;;15.30;99.90;;;;;;6220243;22;20232;-84
2021/08/01 06:00:30;;;;;;;109.57;44.75;;;15.30;99.90;;;;;;6245337;22;20515;-83
2021/08/01 06:02:56;;;;;;;116.82;47.30;;;15.30;99.90;;;;;;6219606;22;20007;-84
2021/08/01 06:05:22;;;;;;;106.20;45.38;;;15.30;99.90;;;;;;6244439;22;20012;-84
2021/08/01 06:07:48;;;;;;;119.32;48.72;;;15.40;99.90;;;;;;6219970;22;20016;-83
2021/08/01 06:10:14;;;;;;;102.97;45.05;;;15.40;99.90;;;;;;6194461;22;20051;-82
2021/08/01 06:12:40;;;;;;;112.15;46.03;;;15.40;99.90;;;;;;6245092;22;20034;-85
2021/08/01 06:15:08;;;;;;;113.90;46.83;;;15.30;99.90;;;;;;6220209;22;20440;-83
2021/08/01 06:17:34;;;;;;;119.45;49.15;;;15.40;99.90;;;;;;6220261;22;20095;-83
2021/08/01 06:20:00;;;;;;;119.05;49.25;;;15.40;99.90;;;;;;6245859;22;20090;-83
2021/08/01 06:22:26;;;;;;;122.88;48.30;;;15.40;99.90;;;;;;6219661;22;20036;-84
2021/08/01 06:24:53;;;;;;;121.80;50.13;;;15.40;99.90;;;;;;6220280;22;20341;-83
2021/08/01 06:27:19;;;;;;;133.80;52.47;;;15.40;99.90;;;;;;6245115;22;20016;-83
2021/08/01 06:29:44;;;;;;;119.63;48.00;;;15.40;99.90;;;;;;6220607;22;20475;-83
2021/08/01 06:32:10;;;;;;;99.20;46.05;;;15.50;99.90;;;;;;6245380;22;20030;-84
2021/08/01 06:34:36;;;;;;;143.40;51.03;;;15.50;99.90;;;;;;6220387;22;20008;-84
2021/08/01 06:37:02;;;;;;;136.45;49.55;;;15.50;99.90;;;;;;6219817;22;20011;-84
2021/08/01 06:39:28;;;;;;;143.70;51.72;;;15.50;99.90;;;;;;6219708;22;20018;-83
2021/08/01 06:41:54;;;;;;;158.48;52.28;;;15.50;99.90;;;;;;6219355;22;20035;-84
2021/08/01 06:44:20;;;;;;;152.75;50.55;;;15.50;99.90;;;;;;6244996;22;20395;-84
2021/08/01 06:46:46;;;;;;;147.60;49.05;;;15.50;99.90;;;;;;6219276;22;20086;-87
2021/08/01 06:49:12;;;;;;;144.98;51.83;;;15.50;99.90;;;;;;6194719;22;20050;-85
2021/08/01 06:51:38;;;;;;;127.80;48.63;;;15.50;99.90;;;;;;6219673;22;20038;-85
2021/08/01 06:54:04;;;;;;;170.20;50.40;;;15.50;99.90;;;;;;6244619;22;20011;-85
2021/08/01 06:56:30;;;;;;;160.38;52.95;;;15.50;99.90;;;;;;6244910;22;20352;-85
2021/08/01 06:58:56;;;;;;;128.90;48.78;;;15.50;99.90;;;;;;6219500;22;20007;-84
2021/08/01 07:01:22;;;;;;;191.80;54.85;;;15.50;99.90;;;;;;6194133;22;20014;-85
2021/08/01 07:03:48;;;;;;;155.45;52.13;;;15.50;99.90;;;;;;6218967;22;20091;-85
2021/08/01 07:06:14;;;;;;;138.43;49.45;;;15.50;99.90;;;;;;6229679;22;20455;-85
2021/08/01 07:08:39;;;;;;;163.15;51.78;;;15.50;99.90;;;;;;6218740;22;20018;-85
2021/08/01 07:11:05;;;;;;;181.82;53.75;;;15.50;99.90;;;;;;6219388;22;20440;-84
2021/08/01 07:13:31;;;;;;;143.43;49.72;;;15.60;99.90;;;;;;6219267;22;20012;-85
2021/08/01 07:16:01;;;;;;;178.90;52.45;;;15.60;99.90;;;;;;6219883;22;20043;-85
2021/08/01 07:18:27;;;;;;;187.75;54.13;;;15.60;99.90;;;;;;6218783;22;20160;-85
2021/08/01 07:20:53;;;;;;;153.60;49.70;;;15.60;99.90;;;;;;6219502;22;20468;-83
2021/08/01 07:23:19;;;;;;;158.80;49.38;;;15.60;99.90;;;;;;6219670;22;20384;-83
2021/08/01 07:25:44;;;;;;;135.35;48.20;;;15.60;99.90;;;;;;6220390;22;20015;-84
2021/08/01 07:28:10;;;;;;;138.00;49.10;;;15.70;99.90;;;;;;6220064;22;20016;-84
2021/08/01 07:30:36;;;;;;;160.85;49.53;;;15.60;99.90;;;;;;6219665;22;20011;-83
2021/08/01 07:33:02;;;;;;;162.48;49.75;;;15.70;99.90;;;;;;6244297;22;20011;-83
2021/08/01 07:35:27;;;;;;;128.88;46.38;;;15.70;99.90;;;;;;6218940;22;20503;-84
2021/08/01 07:37:53;;;;;;;192.10;51.28;;;15.70;99.90;;;;;;6218398;22;20019;-83
2021/08/01 07:40:19;;;;;;;169.93;50.30;;;15.70;99.90;;;;;;6279356;22;20015;-82
2021/08/01 07:42:45;;;;;;;147.38;48.38;;;15.70;99.90;;;;;;6247621;22;20018;-82
2021/08/01 07:47:56;;;;;;;170.48;51.13;;;15.70;99.90;;;;;;6258249;22;20043;-82
2021/08/01 07:50:22;;;;;;;170.27;49.70;;;15.70;99.90;;;;;;6245680;22;20019;-82
2021/08/01 07:52:47;;;;;;;187.18;52.53;;;15.70;99.90;;;;;;6246972;22;20012;-82
2021/08/01 07:55:16;;;;;;;197.90;53.88;;;15.70;99.90;;;;;;6274786;22;20098;-82
2021/08/01 07:57:43;;;;;;;174.73;51.55;;;15.70;99.90;;;;;;6206057;22;20022;-81
2021/08/01 08:00:14;;;;;;;128.60;46.15;;;15.70;99.90;;;;;;6224051;22;20106;-82
2021/08/01 08:02:40;;;;;;;158.88;49.05;;;15.70;99.90;;;;;;6280543;22;20363;-82
2021/08/01 08:05:06;;;;;;;171.13;50.28;;;15.70;99.90;;;;;;6227121;22;20042;-82
2021/08/01 08:07:32;;;;;;;166.52;50.58;;;15.70;99.90;;;;;;6228859;22;20394;-82
2021/08/01 08:09:58;;;;;;;131.55;46.50;;;15.70;99.90;;;;;;6253460;22;20011;-82
2021/08/01 08:12:24;;;;;;;182.93;51.03;;;15.80;99.90;;;;;;6207194;22;20038;-82
2021/08/01 08:14:51;;;;;;;134.48;47.33;;;15.70;99.90;;;;;;6225991;22;20008;-81
2021/08/01 08:17:17;;;;;;;148.55;48.85;;;15.80;99.90;;;;;;6254425;22;20023;-82
2021/08/01 08:19:43;;;;;;;160.82;50.88;;;15.80;99.90;;;;;;6228984;22;20018;-82
2021/08/01 08:22:10;;;;;;;227.43;55.63;;;15.80;99.90;;;;;;6234538;22;20064;-82
2021/08/01 08:24:37;;;;;;;142.48;48.13;;;15.90;99.90;;;;;;6205231;22;20035;-82
2021/08/01 08:27:04;;;;;;;131.18;44.05;;;16.00;99.90;;;;;;6227373;22;20016;-82
2021/08/01 08:29:31;;;;;;;155.93;47.72;;;16.00;99.90;;;;;;6262273;22;20008;-82
2021/08/01 08:32:00;;;;;;;126.93;42.92;;;16.00;99.90;;;;;;6212277;22;20007;-82
2021/08/01 08:34:26;;;;;;;90.20;35.45;;;16.10;99.90;;;;;;6265521;22;20023;-83
2021/08/01 08:36:54;;;;;;;129.35;44.95;;;16.10;99.90;;;;;;6238769;22;20015;-82
2021/08/01 08:39:22;;;;;;;111.65;39.00;;;16.10;99.90;;;;;;6267796;22;20037;-83
2021/08/01 08:41:49;;;;;;;93.18;36.63;;;16.10;99.90;;;;;;6267262;22;20071;-82
2021/08/01 08:44:16;;;;;;;118.45;41.13;;;16.10;99.90;;;;;;6243167;22;20026;-82
2021/08/01 08:46:42;;;;;;;64.22;31.13;;;16.10;99.90;;;;;;6259117;22;20023;-82
2021/08/01 08:49:13;;;;;;;54.35;25.90;;;16.00;99.90;;;;;;6231670;22;20011;-82
2021/08/01 08:51:43;;;;;;;66.45;29.77;;;16.00;99.90;;;;;;6233168;22;20011;-82
2021/08/01 08:54:17;;;;;;;49.67;22.50;;;15.90;99.90;;;;;;6251529;22;20008;-81
2021/08/01 08:56:46;;;;;;;44.58;20.75;;;15.80;99.90;;;;;;6283354;22;20016;-81
2021/08/01 08:59:16;;;;;;;36.47;17.75;;;15.70;99.90;;;;;;6289098;22;20011;-82
2021/08/01 09:01:42;;;;;;;38.90;18.38;;;15.70;99.90;;;;;;6304079;22;20011;-82
2021/08/01 09:04:10;;;;;;;37.85;18.77;;;15.60;99.90;;;;;;6267245;22;20012;-82
2021/08/01 09:06:36;;;;;;;33.95;16.75;;;15.60;99.90;;;;;;6277429;22;20028;-81
2021/08/01 09:09:03;;;;;;;23.52;13.07;;;15.60;99.90;;;;;;6235262;22;20025;-82
2021/08/01 09:11:29;;;;;;;29.58;14.73;;;15.60;99.90;;;;;;6234205;22;20012;-82
2021/08/01 09:13:57;;;;;;;21.00;11.82;;;15.50;99.90;;;;;;6255778;22;20387;-81
2021/08/01 09:16:50;;;;;;;15.57;9.35;;;15.50;99.90;;;;;;6278921;22;20016;-81
2021/08/01 09:19:26;;;;;;;;;;;15.50;99.90;;;;;;6250181;22;20015;-82
2021/08/01 09:21:53;;;;;;;19.77;10.10;;;15.40;99.90;;;;;;6251677;22;19915;-82
2021/08/01 09:24:19;;;;;;;22.38;11.27;;;15.40;99.90;;;;;;6256712;22;20012;-81
2021/08/01 09:26:50;;;;;;;16.92;8.98;;;15.40;99.90;;;;;;6234765;22;20012;-81
2021/08/01 09:29:16;;;;;;;9.13;6.30;;;15.40;99.90;;;;;;6253115;22;20047;-81
2021/08/01 09:31:43;;;;;;;7.60;5.28;;;15.50;99.90;;;;;;6223365;22;20024;-81
2021/08/01 09:34:25;;;;;;;4.82;3.97;;;15.40;99.90;;;;;;6221190;22;20011;-81
2021/08/01 09:37:05;;;;;;;8.80;5.15;;;15.40;99.90;;;;;;6222685;22;20524;-81
2021/08/01 09:39:39;;;;;;;6.32;3.97;;;15.40;99.90;;;;;;6225038;22;20166;-82
2021/08/01 09:42:06;;;;;;;10.40;5.88;;;15.40;99.90;;;;;;6258258;22;20012;-81
2021/08/01 09:44:41;;;;;;;13.23;5.97;;;15.30;99.90;;;;;;6214546;22;20012;-82
2021/08/01 09:47:23;;;;;;;15.82;6.82;;;15.40;99.90;;;;;;6218842;22;20278;-82
2021/08/01 09:50:06;;;;;;;11.50;6.22;;;15.40;99.90;;;;;;6238899;22;20012;-82
2021/08/01 09:52:32;;;;;;;7.55;5.82;;;15.50;99.90;;;;;;6237559;22;20016;-81
2021/08/01 09:55:00;;;;;;;9.98;6.13;;;15.50;99.90;;;;;;6215102;22;20029;-81
2021/08/01 09:57:28;;;;;;;5.82;4.40;;;15.50;99.90;;;;;;6260547;22;20015;-81
2021/08/01 10:00:09;;;;;;;6.78;5.13;;;15.50;99.90;;;;;;6240531;22;20056;-81
2021/08/01 10:02:37;;;;;;;13.25;7.13;;;15.60;99.90;;;;;;6269772;22;20010;-81
2021/08/01 10:05:17;;;;;;;7.88;6.25;;;15.60;99.90;;;;;;6291264;22;20023;-81
2021/08/01 10:07:44;;;;;;;11.32;6.05;;;15.70;99.90;;;;;;6254659;22;20015;-81
2021/08/01 10:10:19;;;;;;;12.57;7.32;;;15.80;99.90;;;;;;6256842;22;20037;-81
2021/08/01 10:12:52;;;;;;;9.68;6.50;;;15.80;99.90;;;;;;6256949;22;20019;-82
2021/08/01 10:15:18;;;;;;;;;;;15.80;99.90;;;;;;6270463;22;20038;-83
2021/08/01 10:17:43;;;;;;;8.30;6.30;;;15.80;99.90;;;;;;6260149;22;20328;-82
2021/08/01 10:20:10;;;;;;;10.27;6.90;;;15.90;99.90;;;;;;6262568;22;20008;-81
2021/08/01 10:22:39;;;;;;;13.52;8.30;;;15.90;99.90;;;;;;6269759;22;20007;-82
2021/08/01 10:25:17;;;;;;;10.70;7.82;;;15.90;99.90;;;;;;6270861;22;20262;-82
2021/08/01 10:27:46;;;;;;;11.15;8.52;;;15.90;99.90;;;;;;6298511;22;20016;-82
2021/08/01 10:30:21;;;;;;;15.35;9.23;;;16.00;99.90;;;;;;6272606;22;20018;-81
2021/08/01 10:32:51;;;;;;;18.88;10.85;;;16.00;99.90;;;;;;6277527;22;20121;-82
2021/08/01 10:35:21;;;;;;;13.25;9.93;;;16.00;99.90;;;;;;6266962;22;20012;-82
2021/08/01 10:38:01;;;;;;;15.02;9.13;;;16.10;99.90;;;;;;6289650;22;20018;-82
2021/08/01 10:40:33;;;;;;;10.23;7.68;;;16.10;99.90;;;;;;6272294;22;20012;-82
2021/08/01 10:43:14;;;;;;;12.20;9.07;;;16.10;99.90;;;;;;6295846;22;20011;-82
2021/08/01 10:45:45;;;;;;;17.83;11.07;;;16.10;99.90;;;;;;6262184;22;20038;-82
2021/08/01 10:48:13;;;;;;;19.00;10.55;;;16.10;99.90;;;;;;6237915;22;20035;-82
2021/08/01 10:50:41;;;;;;;16.45;11.43;;;16.10;99.90;;;;;;6262440;22;20041;-82
2021/08/01 10:53:23;;;;;;;15.70;9.77;;;16.10;99.90;;;;;;6263691;22;20011;-82
2021/08/01 10:56:10;;;;;;;16.27;10.70;;;16.10;99.90;;;;;;6265399;22;20038;-82
2021/08/01 10:58:37;;;;;;;15.27;10.43;;;16.20;99.90;;;;;;6265777;22;20095;-82
2021/08/01 11:01:06;;;;;;;21.75;12.50;;;16.20;99.90;;;;;;6261368;22;20011;-83
2021/08/01 11:03:35;;;;;;;26.75;15.45;;;16.30;99.90;;;;;;6262661;22;20042;-82
2021/08/01 11:06:02;;;;;;;19.98;13.85;;;16.40;99.90;;;;;;6262683;22;20031;-83
2021/08/01 11:08:28;;;;;;;15.98;12.98;;;16.50;99.90;;;;;;6260380;22;20261;-82
2021/08/01 11:11:09;;;;;;;14.93;11.35;;;16.60;99.90;;;;;;6263242;22;20046;-83
2021/08/01 11:13:36;;;;;;;14.10;10.77;;;16.60;99.90;;;;;;6290264;22;20367;-83
2021/08/01 11:16:02;;;;;;;13.00;9.77;;;16.70;99.90;;;;;;6287904;22;20007;-83
2021/08/01 11:18:33;;;;;;;12.38;9.65;;;16.70;99.90;;;;;;6233140;22;20464;-83
2021/08/01 11:21:03;;;;;;;15.10;10.95;;;16.80;99.90;;;;;;6256005;22;20408;-83
2021/08/01 11:23:47;;;;;;;16.10;9.70;;;16.80;99.90;;;;;;6228592;22;20015;-82
2021/08/01 11:26:15;;;;;;;8.35;7.22;;;16.90;99.90;;;;;;6257848;22;20344;-84
2021/08/01 11:28:43;;;;;;;9.40;7.63;;;16.90;99.90;;;;;;6255040;22;20378;-83
2021/08/01 11:31:13;;;;;;;9.32;7.03;;;16.80;99.90;;;;;;6277283;22;20056;-83
2021/08/01 11:33:47;;;;;;;16.13;8.63;;;16.70;99.90;;;;;;6256875;22;20038;-82
2021/08/01 11:36:13;;;;;;;19.67;10.70;;;16.70;99.90;;;;;;6250257;22;20387;-81
2021/08/01 11:38:39;;;;;;;20.27;9.98;;;16.60;99.90;;;;;;6247942;22;20012;-79
2021/08/01 11:41:05;;;;;;;20.35;10.68;;;16.50;99.90;;;;;;6247508;22;20011;-81
2021/08/01 11:43:32;;;;;;;16.25;10.65;;;16.50;99.90;;;;;;6221825;22;20079;-80
2021/08/01 11:46:06;;;;;;;13.38;9.15;;;16.50;99.90;;;;;;6249405;22;20008;-81
2021/08/01 11:48:34;;;;;;;18.38;11.15;;;16.40;99.90;;;;;;6211631;22;20370;-81
2021/08/01 11:51:05;;;;;;;21.63;12.50;;;16.40;99.90;;;;;;6253020;22;20012;-81
2021/08/01 11:53:32;;;;;;;18.17;12.10;;;16.50;99.90;;;;;;6254882;22;20438;-81
2021/08/01 11:56:00;;;;;;;12.18;8.90;;;16.50;99.90;;;;;;6248761;22;20008;-81
2021/08/01 11:58:29;;;;;;;9.95;7.90;;;16.60;99.90;;;;;;6201884;22;20034;-80
2021/08/01 12:00:56;;;;;;;9.70;7.07;;;16.60;99.90;;;;;;6251265;22;20031;-81
2021/08/01 12:03:31;;;;;;;13.90;10.07;;;16.60;99.90;;;;;;6281726;22;20012;-82
2021/08/01 12:05:57;;;;;;;13.65;9.43;;;16.60;99.90;;;;;;6230825;22;20515;-82
2021/08/01 12:08:36;;;;;;;13.50;9.65;;;16.60;99.90;;;;;;6204646;22;20020;-81
2021/08/01 12:11:22;;;;;;;14.02;10.27;;;16.70;99.90;;;;;;6253301;22;20018;-80
2021/08/01 12:14:05;;;;;;;11.30;8.55;;;16.70;99.90;;;;;;6234761;22;20008;-81
2021/08/01 12:16:34;;;;;;;;;;;16.80;99.90;;;;;;6236057;22;20034;-81
2021/08/01 12:19:18;;;;;;;19.70;13.10;;;16.90;99.90;;;;;;6240146;22;19918;-81
2021/08/01 12:21:45;;;;;;;11.40;8.85;;;17.10;99.90;;;;;;6236175;22;20016;-81
2021/08/01 12:24:28;;;;;;;12.48;9.02;;;17.20;99.90;;;;;;6262912;22;20047;-81
2021/08/01 12:27:01;;;;;;;10.95;8.70;;;17.20;99.90;;;;;;6240662;22;20016;-81
2021/08/01 12:29:36;;;;;;;14.38;9.95;;;17.20;99.90;;;;;;6238870;22;20012;-82
2021/08/01 12:32:28;;;;;;;9.55;7.68;;;17.10;99.90;;;;;;6229584;22;20027;-82
2021/08/01 12:35:11;;;;;;;11.32;8.13;;;17.20;99.90;;;;;;6235684;22;20012;-82
2021/08/01 12:37:41;;;;;;;;;;;17.10;99.90;;;;;;6262024;22;20011;-82
2021/08/01 12:40:08;;;;;;;19.98;12.15;;;17.10;99.90;;;;;;6255502;22;19910;-82